createdAt,value
2018-04-28T00:01:04.764Z,2.30
2018-04-28T00:03:32.360Z,2.40
2018-04-28T00:06:00.713Z,2.50
2018-04-28T00:08:29.745Z,2.47
2018-04-28T00:10:57.356Z,2.40
2018-04-28T00:13:24.967Z,2.50
2018-04-28T00:15:53.442Z,2.63
2018-04-28T00:18:24.701Z,2.30
2018-04-28T00:20:52.305Z,2.70
2018-04-28T00:23:19.905Z,2.53
2018-04-28T00:25:49.847Z,2.40
2018-04-28T00:31:14.752Z,2.60
2018-04-28T00:33:42.296Z,2.47
2018-04-28T00:36:13.264Z,2.30
2018-04-28T00:38:48.396Z,2.50
2018-04-28T00:41:15.969Z,2.50
2018-04-28T00:43:44.352Z,2.27
2018-04-28T00:46:18.706Z,2.20
2018-04-28T00:51:43.593Z,2.70
2018-04-28T00:54:41.357Z,2.67
2018-04-28T00:57:33.665Z,2.57
2018-04-28T01:00:02.729Z,2.43
2018-04-28T01:02:30.252Z,2.90
2018-04-28T01:04:57.770Z,2.60
2018-04-28T01:07:26.064Z,2.80
2018-04-28T01:10:00.342Z,2.50
2018-04-28T01:12:31.441Z,2.63
2018-04-28T01:18:03.521Z,2.47
2018-04-28T01:20:31.058Z,2.50
2018-04-28T01:23:00.525Z,2.57
2018-04-28T01:25:37.895Z,2.47
2018-04-28T01:28:07.237Z,2.60
2018-04-28T01:30:38.230Z,2.57
2018-04-28T01:33:11.813Z,2.50
2018-04-28T01:36:00.962Z,2.47
2018-04-28T01:38:30.231Z,2.60
2018-04-28T01:41:15.642Z,2.90
2018-04-28T01:49:42.448Z,2.90
2018-04-28T01:52:10.008Z,2.40
2018-04-28T01:54:59.992Z,2.47
2018-04-28T02:00:32.732Z,2.80
2018-04-28T02:06:24.657Z,2.57
2018-04-28T02:08:53.120Z,2.67
2018-04-28T02:11:24.176Z,2.73
2018-04-28T02:14:13.277Z,2.83
2018-04-28T02:16:42.369Z,2.87
2018-04-28T02:19:16.370Z,2.90
2018-04-28T02:22:05.409Z,3.23
2018-04-28T02:28:02.373Z,3.73
2018-04-28T02:30:29.901Z,3.30
2018-04-28T02:32:58.167Z,3.17
2018-04-28T02:35:28.300Z,3.23
2018-04-28T02:38:05.774Z,2.93
2018-04-28T02:40:51.026Z,2.87
2018-04-28T02:43:19.436Z,3.17
2018-04-28T02:46:04.649Z,3.20
2018-04-28T02:51:55.749Z,3.20
2018-04-28T02:54:24.108Z,3.27
2018-04-28T02:56:52.421Z,2.50
2018-04-28T02:59:22.450Z,2.50
2018-04-28T03:01:51.833Z,2.60
2018-04-28T03:04:20.081Z,2.90
2018-04-28T03:06:51.277Z,2.87
2018-04-28T03:09:22.424Z,2.60
2018-04-28T03:11:53.887Z,2.37
2018-04-28T03:14:21.500Z,2.60
2018-04-28T03:16:55.607Z,2.60
2018-04-28T03:19:24.902Z,2.63
2018-04-28T03:21:55.254Z,2.90
2018-04-28T03:24:25.246Z,2.50
2018-04-28T03:26:55.629Z,2.20
2018-04-28T03:29:33.125Z,2.73
2018-04-28T03:32:00.716Z,2.87
2018-04-28T03:34:34.176Z,2.67
2018-04-28T03:40:16.633Z,2.63
2018-04-28T03:42:45.681Z,2.83
2018-04-28T03:45:13.261Z,2.77
2018-04-28T03:47:44.534Z,3.00
2018-04-28T03:50:28.773Z,3.00
2018-04-28T03:53:05.112Z,2.57
2018-04-28T03:55:32.717Z,2.70
2018-04-28T03:58:12.144Z,2.70
2018-04-28T04:00:52.439Z,3.20
2018-04-28T04:03:24.742Z,2.83
2018-04-28T04:08:57.477Z,2.60
2018-04-28T04:11:46.512Z,3.13
2018-04-28T04:14:40.866Z,2.73
2018-04-28T04:17:14.229Z,2.60
2018-04-28T04:19:50.488Z,2.43
2018-04-28T04:22:21.597Z,3.30
2018-04-28T04:24:54.631Z,2.73
2018-04-28T04:27:44.720Z,2.73
2018-04-28T04:33:53.068Z,3.23
2018-04-28T04:36:29.405Z,3.23
2018-04-28T04:38:57.031Z,3.53
2018-04-28T04:44:33.713Z,2.90
2018-04-28T04:47:08.241Z,2.90
2018-04-28T04:49:52.522Z,3.03
2018-04-28T04:52:32.745Z,3.13
2018-04-28T04:55:06.286Z,3.10
2018-04-28T04:57:57.043Z,2.63
2018-04-28T05:00:33.291Z,2.60
2018-04-28T05:03:12.588Z,2.70
2018-04-28T05:05:40.989Z,2.80
2018-04-28T05:08:30.903Z,2.40
2018-04-28T05:11:10.238Z,2.70
2018-04-28T05:16:56.270Z,3.43
2018-04-28T05:19:37.321Z,2.77
2018-04-28T05:22:11.598Z,3.20
2018-04-28T05:27:49.642Z,3.43
2018-04-28T05:33:40.367Z,2.97
2018-04-28T05:36:11.477Z,3.50
2018-04-28T05:42:07.942Z,3.43
2018-04-28T05:44:56.200Z,3.47
2018-04-28T05:47:39.619Z,3.67
2018-04-28T05:50:25.208Z,3.40
2018-04-28T05:56:27.061Z,3.30
2018-04-28T05:59:04.140Z,3.17
2018-04-28T06:01:43.267Z,3.10
2018-04-28T06:04:24.449Z,3.10
2018-04-28T06:07:04.666Z,3.90
2018-04-28T06:12:57.115Z,3.80
2018-04-28T06:15:30.647Z,3.60
2018-04-28T06:18:16.617Z,3.70
2018-04-28T06:20:45.865Z,3.23
2018-04-28T06:23:14.252Z,3.83
2018-04-28T06:25:42.594Z,3.83
2018-04-28T06:28:10.205Z,3.50
2018-04-28T06:30:38.100Z,3.37
2018-04-28T06:33:05.702Z,3.50
2018-04-28T06:35:33.299Z,3.50
2018-04-28T06:38:00.926Z,3.30
2018-04-28T06:40:29.295Z,3.30
2018-04-28T06:42:56.947Z,3.33
2018-04-28T06:45:24.535Z,3.10
2018-04-28T06:47:52.949Z,3.50
2018-04-28T06:50:20.514Z,3.37
2018-04-28T06:52:48.150Z,3.40
2018-04-28T06:55:15.726Z,3.40
2018-04-28T06:57:43.347Z,3.47
2018-04-28T07:00:11.726Z,3.17
2018-04-28T07:02:40.043Z,3.17
2018-04-28T07:05:07.598Z,2.87
2018-04-28T07:10:32.857Z,3.00
2018-04-28T07:13:00.481Z,3.30
2018-04-28T07:15:28.100Z,3.10
2018-04-28T07:17:56.419Z,3.50
2018-04-28T07:20:24.029Z,3.10
2018-04-28T07:22:51.656Z,3.20
2018-04-28T07:25:19.350Z,3.03
2018-04-28T07:27:46.930Z,3.30
2018-04-28T07:30:15.295Z,3.53
2018-04-28T07:32:42.873Z,3.97
2018-04-28T07:35:11.320Z,3.90
2018-04-28T07:37:38.886Z,3.87
2018-04-28T07:40:06.476Z,3.83
2018-04-28T07:42:34.079Z,4.20
2018-04-28T07:45:01.672Z,4.80
2018-04-28T07:47:29.302Z,4.57
2018-04-28T07:49:56.902Z,5.73
2018-04-28T07:52:24.547Z,7.20
2018-04-28T07:54:52.143Z,6.03
2018-04-28T07:57:19.758Z,4.17
2018-04-28T07:59:47.385Z,3.40
2018-04-28T08:02:14.961Z,3.70
2018-04-28T08:04:42.557Z,4.00
2018-04-28T08:07:10.133Z,3.50
2018-04-28T08:09:38.497Z,3.73
2018-04-28T08:12:06.140Z,4.23
2018-04-28T08:14:33.747Z,3.60
2018-04-28T08:17:02.079Z,3.87
2018-04-28T08:19:29.682Z,3.97
2018-04-28T08:21:58.009Z,4.07
2018-04-28T08:24:25.558Z,3.90
2018-04-28T08:26:53.186Z,4.20
2018-04-28T08:29:20.757Z,5.03
2018-04-28T08:31:48.374Z,4.30
2018-04-28T08:34:15.964Z,4.60
2018-04-28T08:36:44.313Z,4.10
2018-04-28T08:39:11.911Z,4.37
2018-04-28T08:41:39.485Z,4.57
2018-04-28T08:44:07.055Z,4.33
2018-04-28T08:46:34.678Z,4.00
2018-04-28T08:49:02.998Z,4.20
2018-04-28T08:51:30.617Z,4.43
2018-04-28T08:53:58.941Z,3.90
2018-04-28T08:56:26.530Z,4.03
2018-04-28T08:58:54.126Z,4.00
2018-04-28T09:01:21.683Z,3.83
2018-04-28T09:03:49.390Z,3.40
2018-04-28T09:06:16.908Z,3.50
2018-04-28T09:08:44.543Z,3.30
2018-04-28T09:11:12.884Z,2.93
2018-04-28T09:13:40.495Z,4.13
2018-04-28T09:16:08.061Z,3.70
2018-04-28T09:18:35.657Z,3.97
2018-04-28T09:21:03.241Z,3.57
2018-04-28T09:23:30.824Z,3.80
2018-04-28T09:26:02.459Z,3.97
2018-04-28T09:28:29.943Z,3.47
2018-04-28T09:30:58.318Z,3.70
2018-04-28T09:33:26.744Z,3.90
2018-04-28T09:35:54.362Z,3.30
2018-04-28T09:38:22.711Z,3.13
2018-04-28T09:40:50.346Z,3.30
2018-04-28T09:43:17.904Z,3.37
2018-04-28T09:45:45.524Z,3.40
2018-04-28T09:48:13.078Z,3.60
2018-04-28T09:50:41.446Z,3.40
2018-04-28T09:53:09.754Z,3.70
2018-04-28T09:55:37.296Z,3.43
2018-04-28T09:58:05.820Z,3.77
2018-04-28T10:00:35.227Z,4.10
2018-04-28T10:03:05.621Z,3.97
2018-04-28T10:05:33.191Z,4.00
2018-04-28T10:08:04.385Z,4.30
2018-04-28T10:10:31.994Z,4.30
2018-04-28T10:12:59.603Z,5.00
2018-04-28T10:15:27.189Z,4.70
2018-04-28T10:17:54.807Z,7.90
2018-04-28T10:20:22.442Z,3.97
2018-04-28T10:22:49.965Z,3.60
2018-04-28T10:25:17.497Z,3.70
2018-04-28T10:27:45.041Z,4.10
2018-04-28T10:30:13.573Z,3.87
2018-04-28T10:32:41.869Z,4.50
2018-04-28T10:35:11.357Z,3.93
2018-04-28T10:37:39.648Z,3.80
2018-04-28T10:40:09.127Z,3.73
2018-04-28T10:42:37.411Z,3.90
2018-04-28T10:45:05.721Z,3.87
2018-04-28T10:47:34.092Z,4.10
2018-04-28T10:50:01.580Z,3.77
2018-04-28T10:52:29.939Z,4.00
2018-04-28T10:54:57.464Z,3.60
2018-04-28T10:57:25.000Z,3.30
2018-04-28T10:59:52.511Z,3.60
2018-04-28T11:02:20.049Z,3.70
2018-04-28T11:04:47.593Z,3.93
2018-04-28T11:07:15.883Z,3.03
2018-04-28T11:09:43.413Z,3.47
2018-04-28T11:12:11.714Z,4.00
2018-04-28T11:14:39.233Z,3.43
2018-04-28T11:17:06.749Z,4.00
2018-04-28T11:19:34.287Z,4.37
2018-04-28T11:22:01.814Z,4.20
2018-04-28T11:24:29.354Z,3.67
2018-04-28T11:26:56.901Z,4.03
2018-04-28T11:29:24.449Z,4.17
2018-04-28T11:31:51.986Z,4.20
2018-04-28T11:34:19.528Z,3.80
2018-04-28T11:36:47.059Z,3.90
2018-04-28T11:39:14.589Z,4.20
2018-04-28T11:41:42.114Z,4.20
2018-04-28T11:44:10.397Z,4.33
2018-04-28T11:46:37.944Z,4.47
2018-04-28T11:49:06.225Z,5.10
2018-04-28T11:51:33.752Z,4.63
2018-04-28T11:54:01.280Z,4.83
2018-04-28T11:56:28.799Z,4.87
2018-04-28T11:58:57.187Z,5.40
2018-04-28T12:01:24.644Z,4.93
2018-04-28T12:03:52.194Z,4.77
2018-04-28T12:06:20.485Z,5.40
2018-04-28T12:08:48.024Z,4.80
2018-04-28T12:11:16.324Z,4.83
2018-04-28T12:13:43.874Z,4.83
2018-04-28T12:16:11.425Z,5.53
2018-04-28T12:18:38.985Z,4.63
2018-04-28T12:21:06.675Z,4.83
2018-04-28T12:23:34.200Z,5.10
2018-04-28T12:26:01.761Z,4.73
2018-04-28T12:28:29.394Z,4.90
2018-04-28T12:30:56.990Z,4.70
2018-04-28T12:33:24.587Z,4.80
2018-04-28T12:35:52.234Z,5.10
2018-04-28T12:38:19.856Z,4.40
2018-04-28T12:40:48.283Z,4.50
2018-04-28T12:43:15.848Z,4.57
2018-04-28T12:45:43.465Z,4.10
2018-04-28T12:48:11.053Z,5.03
2018-04-28T12:50:38.690Z,5.53
2018-04-28T12:53:11.893Z,5.60
2018-04-28T12:55:39.516Z,5.03
2018-04-28T12:58:07.881Z,4.53
2018-04-28T13:00:35.475Z,4.83
2018-04-28T13:03:03.053Z,4.50
2018-04-28T13:05:30.673Z,4.87
2018-04-28T13:07:59.059Z,4.60
2018-04-28T13:10:27.365Z,4.77
2018-04-28T13:13:09.679Z,4.53
2018-04-28T13:15:49.015Z,4.47
2018-04-28T13:18:22.318Z,4.90
2018-04-28T13:20:49.914Z,4.67
2018-04-28T13:23:17.489Z,5.07
2018-04-28T13:26:07.086Z,4.40
2018-04-28T13:28:34.721Z,4.80
2018-04-28T13:31:03.068Z,4.47
2018-04-28T13:33:30.625Z,4.00
2018-04-28T13:35:58.230Z,4.70
2018-04-28T13:38:26.613Z,4.30
2018-04-28T13:40:54.233Z,4.97
2018-04-28T13:43:21.849Z,4.93
2018-04-28T13:45:49.462Z,5.03
2018-04-28T13:48:17.110Z,4.30
2018-04-28T13:50:45.417Z,4.80
2018-04-28T13:53:13.763Z,4.20
2018-04-28T13:55:42.175Z,4.60
2018-04-28T13:58:10.534Z,5.10
2018-04-28T14:00:38.164Z,4.83
2018-04-28T14:03:05.754Z,4.60
2018-04-28T14:05:33.322Z,5.07
2018-04-28T14:08:00.927Z,5.07
2018-04-28T14:10:28.477Z,4.87
2018-04-28T14:12:56.051Z,3.87
2018-04-28T14:15:23.624Z,5.20
2018-04-28T14:17:51.208Z,4.60
2018-04-28T14:20:18.811Z,4.70
2018-04-28T14:22:46.378Z,4.30
2018-04-28T14:25:13.985Z,4.90
2018-04-28T14:27:41.570Z,5.27
2018-04-28T14:30:09.954Z,4.70
2018-04-28T14:32:38.336Z,4.90
2018-04-28T14:35:05.941Z,5.13
2018-04-28T14:37:33.526Z,5.30
2018-04-28T14:40:01.131Z,4.40
2018-04-28T14:42:37.652Z,5.03
2018-04-28T14:45:05.205Z,4.97
2018-04-28T14:47:32.801Z,4.33
2018-04-28T14:50:01.210Z,4.80
2018-04-28T14:52:28.822Z,4.90
2018-04-28T14:54:56.400Z,5.60
2018-04-28T14:57:24.784Z,5.13
2018-04-28T14:59:53.121Z,5.53
2018-04-28T15:02:20.686Z,5.07
2018-04-28T15:04:48.285Z,5.40
2018-04-28T15:07:15.871Z,5.20
2018-04-28T15:09:43.476Z,5.37
2018-04-28T15:12:11.045Z,4.73
2018-04-28T15:14:38.668Z,6.33
2018-04-28T15:17:06.211Z,5.67
2018-04-28T15:19:33.814Z,5.77
2018-04-28T15:22:01.439Z,5.30
2018-04-28T15:24:29.065Z,4.93
2018-04-28T15:26:56.661Z,4.70
2018-04-28T15:29:24.287Z,4.83
2018-04-28T15:31:51.900Z,4.93
2018-04-28T15:34:19.486Z,4.90
2018-04-28T15:36:47.117Z,4.43
2018-04-28T15:39:14.675Z,5.30
2018-04-28T15:41:42.285Z,4.70
2018-04-28T15:44:10.701Z,5.10
2018-04-28T15:46:38.307Z,4.93
2018-04-28T15:49:05.913Z,4.60
2018-04-28T15:51:33.525Z,5.40
2018-04-28T15:54:01.147Z,5.50
2018-04-28T15:56:28.725Z,4.80
2018-04-28T15:58:56.279Z,6.10
2018-04-28T16:01:23.876Z,4.93
2018-04-28T16:03:52.320Z,4.97
2018-04-28T16:06:19.912Z,4.57
2018-04-28T16:08:47.530Z,5.03
2018-04-28T16:11:15.101Z,5.50
2018-04-28T16:13:42.701Z,5.20
2018-04-28T16:16:10.334Z,4.90
2018-04-28T16:18:37.974Z,5.10
2018-04-28T16:21:05.570Z,4.70
2018-04-28T16:23:34.042Z,5.10
2018-04-28T16:26:01.662Z,5.13
2018-04-28T16:28:29.218Z,5.00
2018-04-28T16:31:20.715Z,4.30
2018-04-28T16:33:48.353Z,4.90
2018-04-28T16:36:15.983Z,5.00
2018-04-28T16:38:43.577Z,5.17
2018-04-28T16:41:11.932Z,4.83
2018-04-28T16:43:39.498Z,5.20
2018-04-28T16:46:07.080Z,5.33
2018-04-28T16:48:35.417Z,5.00
2018-04-28T16:51:02.999Z,5.23
2018-04-28T16:53:30.601Z,4.90
2018-04-28T16:55:58.160Z,4.60
2018-04-28T16:58:25.868Z,5.17
2018-04-28T17:00:53.442Z,5.60
2018-04-28T17:03:21.055Z,5.73
2018-04-28T17:05:48.635Z,4.93
2018-04-28T17:08:16.229Z,5.77
2018-04-28T17:10:43.821Z,6.13
2018-04-28T17:13:11.422Z,5.50
2018-04-28T17:15:38.994Z,5.00
2018-04-28T17:18:06.586Z,5.50
2018-04-28T17:20:35.830Z,4.97
2018-04-28T17:23:03.457Z,5.50
2018-04-28T17:25:31.082Z,5.30
2018-04-28T17:27:58.668Z,5.80
2018-04-28T17:30:27.037Z,5.13
2018-04-28T17:32:54.614Z,5.30
2018-04-28T17:35:23.016Z,5.10
2018-04-28T17:37:50.617Z,5.53
2018-04-28T17:40:18.277Z,5.57
2018-04-28T17:42:45.916Z,6.20
2018-04-28T17:45:13.414Z,10.77
2018-04-28T17:47:40.998Z,6.57
2018-04-28T17:50:08.604Z,6.40
2018-04-28T17:52:36.240Z,7.40
2018-04-28T17:55:03.855Z,6.27
2018-04-28T17:57:31.467Z,7.60
2018-04-28T17:59:59.021Z,6.73
2018-04-28T18:02:26.630Z,6.20
2018-04-28T18:04:54.208Z,6.33
2018-04-28T18:07:47.195Z,7.60
2018-04-28T18:10:15.636Z,5.90
2018-04-28T18:12:47.910Z,5.20
2018-04-28T18:15:16.329Z,5.93
2018-04-28T18:17:44.736Z,5.93
2018-04-28T18:20:12.315Z,6.20
2018-04-28T18:22:57.803Z,5.93
2018-04-28T18:28:43.717Z,6.60
2018-04-28T18:31:36.564Z,6.50
2018-04-28T18:34:06.261Z,7.50
2018-04-28T18:36:39.143Z,7.00
2018-04-28T18:39:10.805Z,6.70
2018-04-28T18:41:40.420Z,7.10
2018-04-28T18:44:25.888Z,7.17
2018-04-28T18:46:58.038Z,7.03
2018-04-28T18:49:25.704Z,6.80
2018-04-28T18:51:53.392Z,6.33
2018-04-28T18:54:20.984Z,6.50
2018-04-28T18:56:48.586Z,6.83
2018-04-28T18:59:16.181Z,6.77
2018-04-28T19:01:48.633Z,6.80
2018-04-28T19:04:25.941Z,7.30
2018-04-28T19:06:54.350Z,5.57
2018-04-28T19:09:21.947Z,6.30
2018-04-28T19:12:06.583Z,6.07
2018-04-28T19:14:34.162Z,6.37
2018-04-28T19:17:01.836Z,6.40
2018-04-28T19:19:31.446Z,6.83
2018-04-28T19:21:59.039Z,7.00
2018-04-28T19:24:26.686Z,7.07
2018-04-28T19:26:55.082Z,6.60
2018-04-28T19:29:23.428Z,6.40
2018-04-28T19:31:51.059Z,6.60
2018-04-28T19:34:19.651Z,6.43
2018-04-28T19:36:47.208Z,7.10
2018-04-28T19:39:14.850Z,6.43
2018-04-28T19:41:56.904Z,7.93
2018-04-28T19:44:24.461Z,7.30
2018-04-28T19:46:52.055Z,7.10
2018-04-28T19:49:19.710Z,11.07
2018-04-28T19:51:47.328Z,8.03
2018-04-28T19:54:17.944Z,7.47
2018-04-28T19:56:45.477Z,7.13
2018-04-28T19:59:13.153Z,7.63
2018-04-28T20:01:40.768Z,7.83
2018-04-28T20:04:09.228Z,7.70
2018-04-28T20:06:36.873Z,7.33
2018-04-28T20:09:09.689Z,7.70
2018-04-28T20:11:38.064Z,8.80
2018-04-28T20:14:06.435Z,8.10
2018-04-28T20:28:17.836Z,7.33
2018-04-28T20:30:45.456Z,7.50
2018-04-28T20:33:13.015Z,6.20
2018-04-28T20:35:46.451Z,6.50
2018-04-28T20:38:13.960Z,5.83
2018-04-28T20:40:41.558Z,6.40
2018-04-28T20:43:09.165Z,6.77
2018-04-28T20:45:36.794Z,6.97
2018-04-28T20:48:06.387Z,7.03
2018-04-28T20:50:33.974Z,8.10
2018-04-28T20:53:01.606Z,7.23
2018-04-28T20:55:29.961Z,7.17
2018-04-28T20:57:57.578Z,7.30
2018-04-28T21:00:25.169Z,6.70
2018-04-28T21:02:52.736Z,7.43
2018-04-28T21:05:20.313Z,6.87
2018-04-28T21:07:48.678Z,6.17
2018-04-28T21:10:17.044Z,7.70
2018-04-28T21:12:44.668Z,7.23
2018-04-28T21:15:12.219Z,6.53
2018-04-28T21:17:39.871Z,6.40
2018-04-28T21:20:07.465Z,6.30
2018-04-28T21:22:35.080Z,6.50
2018-04-28T21:25:02.709Z,6.27
2018-04-28T21:27:30.267Z,6.20
2018-04-28T21:29:57.890Z,5.70
2018-04-28T21:32:25.440Z,6.07
2018-04-28T21:34:53.038Z,5.43
2018-04-28T21:37:20.666Z,6.03
2018-04-28T21:39:48.292Z,6.00
2018-04-28T21:42:16.694Z,5.63
2018-04-28T21:44:44.315Z,5.47
2018-04-28T21:47:11.969Z,5.00
2018-04-28T21:49:39.585Z,5.40
2018-04-28T21:52:07.188Z,5.27
2018-04-28T21:54:34.793Z,5.40
2018-04-28T21:57:02.385Z,6.00
2018-04-28T21:59:30.002Z,5.77
2018-04-28T22:01:57.558Z,4.57
2018-04-28T22:04:25.919Z,4.93
2018-04-28T22:09:52.377Z,3.77
2018-04-28T22:12:20.700Z,3.37
2018-04-28T22:14:48.306Z,3.70
2018-04-28T22:17:15.934Z,3.50
2018-04-28T22:19:43.540Z,3.53
2018-04-28T22:22:11.904Z,3.40
2018-04-28T22:24:39.509Z,3.23
2018-04-28T22:27:07.094Z,3.27
2018-04-28T22:29:34.680Z,3.50
2018-04-28T22:32:02.270Z,3.60
2018-04-28T22:34:30.578Z,3.60
2018-04-28T22:36:58.158Z,3.80
2018-04-28T22:39:25.764Z,3.10
2018-04-28T22:41:53.369Z,2.70
2018-04-28T22:44:20.985Z,2.87
2018-04-28T22:46:48.572Z,3.10
2018-04-28T22:49:16.125Z,2.93
2018-04-28T22:51:43.774Z,2.87
2018-04-28T22:54:11.365Z,3.93
2018-04-28T22:56:38.970Z,2.70
2018-04-28T22:59:07.294Z,3.10
2018-04-28T23:01:34.897Z,3.37
2018-04-28T23:04:02.515Z,2.87
2018-04-28T23:06:30.103Z,3.30
2018-04-28T23:08:57.684Z,2.93
2018-04-28T23:11:26.047Z,2.53
2018-04-28T23:13:53.694Z,3.50
2018-04-28T23:16:21.322Z,2.90
2018-04-28T23:18:48.902Z,2.30
2018-04-28T23:21:16.506Z,2.80
2018-04-28T23:23:44.857Z,2.63
2018-04-28T23:26:12.433Z,2.40
2018-04-28T23:28:40.038Z,2.70
2018-04-28T23:31:07.617Z,2.70
2018-04-28T23:33:35.217Z,2.70
2018-04-28T23:36:02.778Z,2.80
2018-04-28T23:38:31.156Z,2.60
2018-04-28T23:40:58.754Z,2.63
2018-04-28T23:43:26.317Z,2.90
2018-04-28T23:45:54.667Z,2.80
2018-04-28T23:48:23.000Z,3.03
2018-04-28T23:50:50.607Z,2.90
2018-04-28T23:53:18.961Z,2.60
2018-04-28T23:55:46.618Z,2.70
2018-04-28T23:58:14.193Z,2.47
